Time;durP1;ratioP1;P1;durP2;ratioP2;P2;SDS_P1;SDS_P2;PMS_P1;PMS_P2;Temp;Humidity;BMP_temperature;BMP_pressure;BME280_temperature;BME280_humidity;BME280_pressure;Samples;Min_cycle;Max_cycle;Signal;HPM_P1;HPM_P2
2021/03/08 00:00:39;;;;;;;48.05;14.75;;;1.60;83.70;;;;;;4995561;28;20195;-85
2021/03/08 00:03:06;;;;;;;36.20;15.13;;;1.60;83.70;;;;;;4995164;28;20206;-84
2021/03/08 00:05:33;;;;;;;37.40;15.65;;;1.50;83.80;;;;;;4995186;28;20194;-84
2021/03/08 00:07:59;;;;;;;41.60;16.38;;;1.50;84.50;;;;;;4995507;28;20186;-84
2021/03/08 00:10:25;;;;;;;35.70;13.23;;;1.50;84.50;;;;;;4995021;28;20203;-84
2021/03/08 00:12:51;;;;;;;39.50;15.27;;;1.50;84.20;;;;;;4994734;28;20234;-84
2021/03/08 00:15:18;;;;;;;39.10;15.27;;;1.40;84.60;;;;;;4995482;28;20442;-84
2021/03/08 00:17:45;;;;;;;39.95;14.30;;;1.50;84.80;;;;;;4994706;28;20294;-84
2021/03/08 00:20:13;;;;;;;34.97;15.00;;;1.40;84.60;;;;;;4994666;28;20195;-85
2021/03/08 00:22:40;;;;;;;33.40;14.15;;;1.40;84.50;;;;;;4994827;28;20171;-85
2021/03/08 00:25:09;;;;;;;28.90;13.25;;;1.40;84.50;;;;;;4995195;28;20678;-85
2021/03/08 00:27:34;;;;;;;34.97;13.38;;;1.40;84.50;;;;;;4995047;28;20615;-84
2021/03/08 00:30:00;;;;;;;37.67;14.55;;;1.40;84.50;;;;;;4994759;28;20195;-84
2021/03/08 00:32:26;;;;;;;39.80;15.83;;;1.40;84.80;;;;;;4995058;28;20182;-85
2021/03/08 00:34:52;;;;;;;40.27;14.90;;;1.30;84.90;;;;;;4994853;28;20441;-84
2021/03/08 00:37:17;;;;;;;36.60;15.10;;;1.30;85.10;;;;;;4994630;28;20709;-85
2021/03/08 00:39:43;;;;;;;35.93;15.13;;;1.30;85.10;;;;;;4994721;28;20777;-85
2021/03/08 00:42:09;;;;;;;44.73;15.67;;;1.30;85.20;;;;;;4994377;28;20401;-85
2021/03/08 00:44:35;;;;;;;33.33;14.47;;;1.30;85.20;;;;;;4994484;28;20414;-85
2021/03/08 00:47:01;;;;;;;40.73;15.80;;;1.20;85.30;;;;;;4994367;28;20792;-85
2021/03/08 00:49:26;;;;;;;38.67;15.80;;;1.20;85.30;;;;;;4994234;28;20473;-85
2021/03/08 00:51:52;;;;;;;42.10;16.23;;;1.20;85.10;;;;;;4994519;28;20438;-85
2021/03/08 00:54:18;;;;;;;42.13;15.27;;;1.20;85.30;;;;;;4994693;28;20538;-85
2021/03/08 00:56:44;;;;;;;43.07;15.77;;;1.20;85.10;;;;;;4994037;28;20179;-84
2021/03/08 00:59:09;;;;;;;36.10;15.23;;;1.20;84.90;;;;;;4993992;28;20794;-85
2021/03/08 01:01:35;;;;;;;41.60;14.87;;;1.10;85.50;;;;;;4994121;28;20214;-85
2021/03/08 01:04:01;;;;;;;39.07;15.90;;;1.10;85.60;;;;;;4994430;28;20195;-84
2021/03/08 01:06:26;;;;;;;44.23;15.93;;;1.10;85.90;;;;;;4994288;28;20179;-84
2021/03/08 01:08:52;;;;;;;42.10;14.50;;;1.00;85.90;;;;;;4993812;28;20203;-84
2021/03/08 01:11:18;;;;;;;35.70;14.27;;;1.00;86.20;;;;;;4993973;28;20475;-84
2021/03/08 01:13:44;;;;;;;36.80;16.10;;;1.00;86.00;;;;;;4993738;28;20709;-84
2021/03/08 01:16:09;;;;;;;35.93;14.33;;;1.00;86.00;;;;;;4994200;28;20484;-84
2021/03/08 01:18:35;;;;;;;41.27;16.40;;;1.00;86.00;;;;;;4993657;28;20671;-84
2021/03/08 01:21:01;;;;;;;40.53;17.00;;;0.90;86.40;;;;;;4993757;28;20434;-84
2021/03/08 01:23:27;;;;;;;37.43;14.77;;;0.90;87.40;;;;;;4994174;28;20443;-84
2021/03/08 01:25:52;;;;;;;41.90;17.67;;;0.90;87.30;;;;;;4994162;28;20406;-84
2021/03/08 01:28:18;;;;;;;35.00;15.30;;;0.90;87.30;;;;;;4993749;28;20585;-83
2021/03/08 01:30:45;;;;;;;40.43;15.67;;;0.80;86.90;;;;;;4993609;28;20258;-84
2021/03/08 01:33:12;;;;;;;35.80;15.32;;;0.80;86.90;;;;;;4993152;28;20415;-84
2021/03/08 01:35:39;;;;;;;41.90;15.48;;;0.80;87.00;;;;;;4993311;28;20591;-84
2021/03/08 01:38:05;;;;;;;41.40;15.20;;;0.80;87.00;;;;;;4993411;28;20290;-84
2021/03/08 01:40:34;;;;;;;39.72;16.63;;;0.80;87.40;;;;;;4993585;28;20218;-84
2021/03/08 01:43:00;;;;;;;37.05;14.90;;;0.80;87.40;;;;;;4993440;28;20167;-84
2021/03/08 01:45:26;;;;;;;36.83;15.93;;;0.80;87.30;;;;;;4993305;28;20586;-84
2021/03/08 01:47:52;;;;;;;47.30;18.17;;;0.80;87.00;;;;;;4993808;28;20488;-83
2021/03/08 01:50:24;;;;;;;36.78;14.98;;;0.80;87.40;;;;;;4994210;28;20274;-83
2021/03/08 01:52:51;;;;;;;39.83;15.48;;;0.70;87.40;;;;;;4993954;28;20179;-83
2021/03/08 01:55:18;;;;;;;35.47;13.70;;;0.70;87.30;;;;;;4994074;28;20179;-83
2021/03/08 01:57:43;;;;;;;39.65;14.75;;;0.70;87.60;;;;;;4993696;28;20213;-83
2021/03/08 02:00:10;;;;;;;39.63;14.80;;;0.70;87.60;;;;;;4993910;28;20187;-83
2021/03/08 02:02:36;;;;;;;42.55;15.90;;;0.60;87.80;;;;;;4994137;28;20415;-83
2021/03/08 02:05:05;;;;;;;43.33;15.60;;;0.70;87.60;;;;;;4994552;28;20167;-83
2021/03/08 02:07:31;;;;;;;41.88;15.40;;;0.60;87.40;;;;;;4994144;28;20405;-85
2021/03/08 02:09:57;;;;;;;47.80;16.73;;;0.60;87.80;;;;;;4993765;28;20207;-83
2021/03/08 02:12:37;;;;;;;35.00;15.48;;;0.50;88.30;;;;;;4993688;28;20506;-83
2021/03/08 02:15:25;;;;;;;44.08;15.80;;;0.50;88.50;;;;;;4993134;28;20205;-83
2021/03/08 02:18:10;;;;;;;50.83;15.15;;;0.50;88.10;;;;;;4994190;28;20678;-83
2021/03/08 02:20:54;;;;;;;49.80;16.48;;;0.50;88.40;;;;;;4995158;28;20201;-83
2021/03/08 02:23:50;;;;;;;33.20;14.80;;;0.40;88.70;;;;;;4994926;28;20155;-83
2021/03/08 02:26:27;;;;;;;39.25;15.82;;;0.40;89.50;;;;;;4994863;28;20175;-83
2021/03/08 02:29:02;;;;;;;36.08;14.10;;;0.40;89.80;;;;;;4995853;28;20159;-83
2021/03/08 02:31:31;;;;;;;37.90;15.95;;;0.40;90.10;;;;;;4994293;28;20289;-83
2021/03/08 02:34:03;;;;;;;44.92;16.15;;;0.40;90.10;;;;;;4994664;28;20677;-83
2021/03/08 02:36:38;;;;;;;41.00;14.88;;;0.40;89.60;;;;;;4993442;28;20175;-83
2021/03/08 02:39:22;;;;;;;40.85;14.88;;;0.30;89.80;;;;;;4994798;28;20206;-83
2021/03/08 02:41:52;;;;;;;38.58;15.82;;;0.30;90.30;;;;;;4993834;28;20295;-83
2021/03/08 02:44:20;;;;;;;38.33;14.20;;;0.30;90.40;;;;;;4994420;28;20182;-83
2021/03/08 02:46:48;;;;;;;36.13;15.13;;;0.20;90.30;;;;;;4995447;28;20274;-83
2021/03/08 02:49:21;;;;;;;52.58;16.60;;;0.20;90.40;;;;;;4995453;28;20213;-83
2021/03/08 02:51:57;;;;;;;33.60;14.18;;;0.20;90.30;;;;;;4997094;28;20694;-83
2021/03/08 02:54:25;;;;;;;37.28;15.43;;;0.20;90.10;;;;;;4996164;28;20167;-83
2021/03/08 02:56:53;;;;;;;38.40;15.30;;;0.20;90.10;;;;;;4995829;28;20656;-83
2021/03/08 02:59:20;;;;;;;36.88;15.10;;;0.20;90.10;;;;;;4996089;28;20172;-84
2021/03/08 03:01:48;;;;;;;34.70;13.60;;;0.20;89.60;;;;;;4995289;28;20199;-83
2021/03/08 03:04:16;;;;;;;36.00;14.45;;;0.20;89.20;;;;;;4994881;28;20218;-83
2021/03/08 03:06:45;;;;;;;35.30;14.38;;;0.20;88.90;;;;;;4994589;28;20171;-83
2021/03/08 03:09:13;;;;;;;42.70;14.73;;;0.20;89.20;;;;;;4997831;28;20271;-83
2021/03/08 03:11:42;;;;;;;38.33;14.50;;;0.20;88.70;;;;;;4999891;28;20267;-83
2021/03/08 03:14:10;;;;;;;41.30;15.63;;;0.20;88.40;;;;;;4999082;28;20222;-83
2021/03/08 03:16:37;;;;;;;28.75;13.05;;;0.20;88.80;;;;;;4998024;28;20569;-83
2021/03/08 03:19:04;;;;;;;36.53;13.52;;;0.10;88.50;;;;;;4998676;28;20217;-83
2021/03/08 03:21:32;;;;;;;34.45;14.63;;;0.10;88.00;;;;;;4998360;28;20222;-83
2021/03/08 03:24:00;;;;;;;28.73;12.55;;;0.10;87.40;;;;;;4998738;28;20314;-83
2021/03/08 03:26:28;;;;;;;31.90;14.00;;;0.10;87.30;;;;;;4998541;28;20662;-83
2021/03/08 03:28:55;;;;;;;32.63;14.13;;;-0.10;87.30;;;;;;4997933;28;20179;-83
2021/03/08 03:31:22;;;;;;;37.90;13.10;;;-0.20;88.40;;;;;;4998260;28;20246;-83
2021/03/08 03:33:49;;;;;;;30.10;12.70;;;-0.10;88.00;;;;;;4998167;28;20183;-83
2021/03/08 03:36:15;;;;;;;35.05;14.13;;;-0.10;87.40;;;;;;4998381;28;20210;-83
2021/03/08 03:38:41;;;;;;;27.65;12.80;;;0.00;87.10;;;;;;4998871;28;20671;-83
2021/03/08 03:41:08;;;;;;;31.77;11.82;;;0.00;86.90;;;;;;4998357;28;20203;-83
2021/03/08 03:43:34;;;;;;;32.15;13.10;;;0.00;86.90;;;;;;4998349;28;20226;-83
2021/03/08 03:46:01;;;;;;;36.90;15.40;;;0.00;86.90;;;;;;4998388;28;20186;-83
2021/03/08 03:48:27;;;;;;;33.80;12.93;;;0.00;87.10;;;;;;4997683;28;20225;-83
2021/03/08 03:50:53;;;;;;;36.63;14.20;;;-0.10;87.10;;;;;;4997753;28;20190;-83
2021/03/08 03:53:19;;;;;;;33.63;14.18;;;-0.10;87.10;;;;;;4998395;28;20417;-83
2021/03/08 03:55:45;;;;;;;31.13;12.90;;;-0.10;87.00;;;;;;4998693;28;20504;-82
2021/03/08 03:58:20;;;;;;;29.05;13.52;;;-0.10;86.90;;;;;;4998030;28;20514;-83
2021/03/08 04:01:00;;;;;;;28.45;13.07;;;-0.10;86.70;;;;;;4998225;28;20187;-82
2021/03/08 04:03:33;;;;;;;35.13;15.00;;;-0.20;87.10;;;;;;4998191;28;20585;-83
2021/03/08 04:06:00;;;;;;;33.38;15.13;;;-0.10;88.00;;;;;;4998490;28;20168;-83
2021/03/08 04:08:27;;;;;;;33.90;15.02;;;-0.20;88.40;;;;;;4998024;28;20185;-84
2021/03/08 04:10:57;;;;;;;30.08;14.55;;;-0.20;88.50;;;;;;4998022;28;20206;-82
2021/03/08 04:13:29;;;;;;;36.60;13.25;;;-0.20;88.50;;;;;;4998167;28;20247;-82
2021/03/08 04:15:56;;;;;;;38.75;14.32;;;-0.20;88.30;;;;;;4998764;28;20262;-82
2021/03/08 04:18:25;;;;;;;31.75;13.00;;;-0.20;88.10;;;;;;4997973;28;20218;-83
2021/03/08 04:20:54;;;;;;;32.00;13.85;;;-0.20;88.50;;;;;;4997431;28;20192;-83
2021/03/08 04:23:21;;;;;;;33.67;14.82;;;-0.20;88.90;;;;;;4998760;28;20175;-83
2021/03/08 04:25:49;;;;;;;67.45;15.73;;;-0.20;88.80;;;;;;4997705;28;20171;-83
2021/03/08 04:28:16;;;;;;;38.33;15.25;;;-0.20;88.50;;;;;;4999327;28;20167;-83
2021/03/08 04:30:44;;;;;;;31.70;13.50;;;-0.20;88.30;;;;;;4998262;28;20206;-82
2021/03/08 04:33:12;;;;;;;36.72;16.17;;;-0.30;88.40;;;;;;4998320;28;20220;-83
2021/03/08 04:35:39;;;;;;;33.10;16.23;;;-0.30;88.70;;;;;;4997923;28;20229;-83
2021/03/08 04:38:06;;;;;;;41.85;17.05;;;-0.30;89.20;;;;;;4997960;28;20213;-82
2021/03/08 04:40:34;;;;;;;41.85;15.70;;;-0.30;89.40;;;;;;4998179;28;20191;-82
2021/03/08 04:43:03;;;;;;;34.13;13.40;;;-0.40;89.40;;;;;;4997916;28;20195;-83
2021/03/08 04:45:29;;;;;;;35.88;13.73;;;-0.40;89.60;;;;;;4997770;28;20608;-82
2021/03/08 04:47:56;;;;;;;35.92;15.05;;;-0.40;88.90;;;;;;4998151;28;20199;-82
2021/03/08 04:50:22;;;;;;;32.65;12.77;;;-0.40;88.40;;;;;;4998003;28;20195;-83
2021/03/08 04:52:50;;;;;;;34.22;12.70;;;-0.40;88.40;;;;;;4999338;28;20222;-83
2021/03/08 04:55:17;;;;;;;35.92;15.77;;;-0.40;88.70;;;;;;4997765;28;20179;-82
2021/03/08 04:57:43;;;;;;;44.65;15.68;;;-0.50;88.80;;;;;;5001680;28;20190;-83
2021/03/08 05:00:11;;;;;;;36.10;14.55;;;-0.50;88.70;;;;;;5017450;28;20325;-83
2021/03/08 05:02:43;;;;;;;37.45;16.10;;;-0.50;88.50;;;;;;5016823;28;20321;-83
2021/03/08 05:05:13;;;;;;;41.20;17.15;;;-0.50;88.40;;;;;;5017360;28;20261;-82
2021/03/08 05:07:41;;;;;;;29.83;13.70;;;-0.50;88.30;;;;;;5017075;28;20189;-83
2021/03/08 05:10:09;;;;;;;35.00;14.73;;;-0.50;88.40;;;;;;5016587;28;20593;-83
2021/03/08 05:12:39;;;;;;;39.08;15.13;;;-0.60;88.40;;;;;;5016868;28;20257;-83
2021/03/08 05:15:07;;;;;;;44.15;17.00;;;-0.60;88.80;;;;;;5016872;28;20174;-83
2021/03/08 05:17:35;;;;;;;36.22;14.23;;;-0.60;89.10;;;;;;5017843;28;20202;-83
2021/03/08 05:20:02;;;;;;;40.60;13.15;;;-0.60;89.20;;;;;;5016758;28;20186;-83
2021/03/08 05:22:28;;;;;;;32.22;14.18;;;-0.60;89.60;;;;;;5017411;28;20171;-82
2021/03/08 05:24:54;;;;;;;38.27;14.53;;;-0.60;89.90;;;;;;5013598;28;20412;-84
2021/03/08 05:27:20;;;;;;;31.67;14.70;;;-0.60;90.10;;;;;;5013533;28;20389;-85
2021/03/08 05:29:48;;;;;;;46.58;16.08;;;-0.60;89.90;;;;;;5013156;28;20175;-85
2021/03/08 05:32:23;;;;;;;37.20;13.85;;;-0.60;89.50;;;;;;5012569;28;20178;-85
2021/03/08 05:34:51;;;;;;;35.75;14.13;;;-0.60;89.20;;;;;;5013315;28;20167;-84
2021/03/08 05:37:21;;;;;;;34.53;14.35;;;-0.70;89.40;;;;;;5012683;28;20566;-84
2021/03/08 05:39:48;;;;;;;35.90;12.98;;;-0.70;90.10;;;;;;5013153;28;20173;-85
2021/03/08 05:42:16;;;;;;;36.38;13.73;;;-0.70;90.10;;;;;;5012921;28;20253;-84
2021/03/08 05:44:54;;;;;;;42.08;15.50;;;-0.70;90.10;;;;;;5012830;28;20205;-84
2021/03/08 05:47:57;;;;;;;29.75;13.45;;;-0.60;89.90;;;;;;5012574;28;20257;-84
2021/03/08 05:50:38;;;;;;;30.60;13.80;;;-0.70;89.60;;;;;;5012888;28;20194;-84
2021/03/08 05:53:15;;;;;;;36.83;14.75;;;-0.70;89.40;;;;;;5012784;28;20543;-84
2021/03/08 05:56:08;;;;;;;34.55;14.40;;;-0.70;88.90;;;;;;5012804;28;20194;-84
2021/03/08 05:58:47;;;;;;;34.42;13.60;;;-0.70;89.10;;;;;;5013041;28;20553;-84
2021/03/08 06:01:50;;;;;;;26.98;12.60;;;-0.70;89.60;;;;;;5013101;28;20604;-85
2021/03/08 06:04:50;;;;;;;43.53;15.05;;;-0.70;90.20;;;;;;5012629;28;20186;-84
2021/03/08 06:07:16;;;;;;;31.52;13.85;;;-0.80;90.50;;;;;;5012869;28;20166;-84
2021/03/08 06:10:04;;;;;;;45.67;15.83;;;-0.90;90.80;;;;;;5013097;28;20186;-84
2021/03/08 06:12:38;;;;;;;40.53;14.48;;;-1.00;91.10;;;;;;5013015;28;20417;-84
2021/03/08 06:15:17;;;;;;;44.38;14.70;;;-1.00;91.50;;;;;;5012878;28;20265;-84
2021/03/08 06:17:43;;;;;;;40.25;15.82;;;-1.00;91.70;;;;;;5012880;28;20212;-84
2021/03/08 06:20:10;;;;;;;41.95;16.30;;;-0.90;91.60;;;;;;5012667;28;20208;-84
2021/03/08 06:22:39;;;;;;;46.97;17.13;;;-0.90;91.80;;;;;;5012890;28;20181;-84
2021/03/08 06:25:05;;;;;;;31.20;13.55;;;-0.90;91.70;;;;;;5012776;28;20262;-84
2021/03/08 06:27:31;;;;;;;39.10;16.30;;;-0.80;91.50;;;;;;5012512;28;20274;-84
2021/03/08 06:29:58;;;;;;;32.13;15.52;;;-0.80;91.20;;;;;;5012826;28;20324;-84
2021/03/08 06:32:24;;;;;;;42.55;16.35;;;-0.70;91.30;;;;;;5012515;28;20179;-84
2021/03/08 06:34:50;;;;;;;37.95;16.95;;;-0.80;91.60;;;;;;5012429;28;20270;-85
2021/03/08 06:37:18;;;;;;;37.33;15.45;;;-0.70;91.90;;;;;;5012814;28;20364;-85
2021/03/08 06:39:46;;;;;;;44.13;17.02;;;-0.70;91.90;;;;;;5012742;28;20175;-85
2021/03/08 06:42:14;;;;;;;33.50;13.88;;;-0.60;91.80;;;;;;5012774;28;20174;-84
2021/03/08 06:44:40;;;;;;;43.95;16.55;;;-0.60;91.40;;;;;;5012283;28;20174;-84
2021/03/08 06:47:08;;;;;;;47.53;17.35;;;-0.50;90.80;;;;;;5012251;28;20262;-84
2021/03/08 06:49:35;;;;;;;40.88;14.80;;;-0.50;90.70;;;;;;5012600;28;20265;-84
2021/03/08 06:52:13;;;;;;;43.97;16.60;;;-0.40;90.60;;;;;;5012537;28;20252;-85
2021/03/08 06:54:44;;;;;;;42.42;17.52;;;-0.30;90.40;;;;;;5012781;28;20167;-85
2021/03/08 06:57:21;;;;;;;43.85;16.13;;;-0.20;90.10;;;;;;5012577;28;20722;-85
2021/03/08 06:59:53;;;;;;;43.88;16.15;;;-0.20;90.40;;;;;;5012462;28;20174;-84
2021/03/08 07:02:20;;;;;;;38.40;16.67;;;-0.20;90.60;;;;;;5012139;28;20662;-85
2021/03/08 07:04:46;;;;;;;45.75;17.52;;;-0.10;90.60;;;;;;5012408;28;20199;-85
2021/03/08 07:07:13;;;;;;;43.25;17.13;;;0.00;90.50;;;;;;5006621;28;20239;-85
2021/03/08 07:09:53;;;;;;;36.25;15.93;;;0.00;90.50;;;;;;4992961;28;20234;-85
2021/03/08 07:12:20;;;;;;;36.83;15.57;;;0.10;90.30;;;;;;4992816;28;20205;-85
2021/03/08 07:14:59;;;;;;;35.72;15.55;;;0.20;89.80;;;;;;4992830;28;20202;-85
2021/03/08 07:17:32;;;;;;;46.38;18.83;;;0.30;89.50;;;;;;4993570;28;20198;-84
2021/03/08 07:20:19;;;;;;;43.83;16.45;;;0.30;89.20;;;;;;4992977;28;20199;-84
2021/03/08 07:22:48;;;;;;;44.58;19.00;;;0.40;88.90;;;;;;4992930;28;20184;-84
2021/03/08 07:25:27;;;;;;;44.05;18.60;;;0.50;88.50;;;;;;4993232;28;20183;-85
2021/03/08 07:28:00;;;;;;;51.78;18.38;;;0.60;88.00;;;;;;4993479;28;20206;-85
2021/03/08 07:30:38;;;;;;;54.78;18.35;;;0.60;87.70;;;;;;4993230;28;20676;-84
2021/03/08 07:33:10;;;;;;;50.25;19.48;;;0.60;88.00;;;;;;4993480;28;20206;-85
2021/03/08 07:35:42;;;;;;;55.53;20.65;;;0.60;89.10;;;;;;4993520;28;20172;-84
2021/03/08 07:38:13;;;;;;;51.13;17.83;;;0.60;89.90;;;;;;4993450;28;20215;-84
2021/03/08 07:40:41;;;;;;;49.50;20.08;;;0.70;89.80;;;;;;4993117;28;20227;-85
2021/03/08 07:43:18;;;;;;;52.83;19.27;;;0.80;89.50;;;;;;4992481;28;20218;-84
2021/03/08 07:45:45;;;;;;;56.17;19.60;;;0.80;89.10;;;;;;4992804;28;20175;-84
2021/03/08 07:48:19;;;;;;;48.22;20.17;;;0.90;88.80;;;;;;4992589;28;20183;-84
2021/03/08 07:50:46;;;;;;;48.60;19.38;;;1.00;88.10;;;;;;4993620;28;20191;-84
2021/03/08 07:53:25;;;;;;;37.28;16.33;;;1.00;87.40;;;;;;4992329;28;20202;-84
2021/03/08 07:55:59;;;;;;;44.65;17.65;;;1.10;87.60;;;;;;4995193;28;20167;-84
2021/03/08 07:58:27;;;;;;;40.22;17.88;;;1.10;87.30;;;;;;4995628;28;20199;-84
2021/03/08 08:00:52;;;;;;;36.55;16.73;;;1.10;86.70;;;;;;4995796;28;20293;-84
2021/03/08 08:03:18;;;;;;;37.30;15.70;;;1.20;86.90;;;;;;4995738;28;20277;-85
2021/03/08 08:05:44;;;;;;;43.65;18.88;;;1.30;86.20;;;;;;4995783;28;20561;-84
2021/03/08 08:08:13;;;;;;;39.80;15.57;;;1.30;85.20;;;;;;4995813;28;20253;-85
2021/03/08 08:10:39;;;;;;;44.15;17.42;;;1.40;85.60;;;;;;4995565;28;20504;-84
2021/03/08 08:13:07;;;;;;;45.78;18.27;;;1.40;85.50;;;;;;4996238;28;20658;-84
2021/03/08 08:15:36;;;;;;;45.05;18.77;;;1.40;85.50;;;;;;4996297;28;20183;-84
2021/03/08 08:18:06;;;;;;;36.13;15.32;;;1.50;85.60;;;;;;4995445;28;20293;-84
2021/03/08 08:20:32;;;;;;;34.08;15.02;;;1.50;85.30;;;;;;4995572;28;20225;-84
2021/03/08 08:23:01;;;;;;;41.42;16.70;;;1.60;84.80;;;;;;4995528;28;20214;-84
2021/03/08 08:25:27;;;;;;;46.60;16.45;;;1.60;84.80;;;;;;4995494;28;20176;-85
2021/03/08 08:27:54;;;;;;;35.97;17.35;;;1.70;84.20;;;;;;4995669;28;20270;-85
2021/03/08 08:30:25;;;;;;;44.00;17.02;;;1.70;84.60;;;;;;4995788;28;20283;-85
2021/03/08 08:32:59;;;;;;;37.15;16.10;;;1.80;84.50;;;;;;4995516;28;20175;-84
2021/03/08 08:35:27;;;;;;;41.25;17.00;;;1.90;83.40;;;;;;4995108;28;20175;-85
2021/03/08 08:38:11;;;;;;;36.03;17.02;;;2.00;82.70;;;;;;4994595;28;20245;-84
2021/03/08 08:40:41;;;;;;;58.58;18.65;;;2.10;82.60;;;;;;4995633;28;20691;-84
2021/03/08 08:43:16;;;;;;;32.72;13.57;;;2.20;82.60;;;;;;4995543;28;20175;-84
2021/03/08 08:45:46;;;;;;;35.80;16.38;;;2.20;82.10;;;;;;4995278;28;20639;-84
2021/03/08 08:48:12;;;;;;;38.78;16.05;;;2.30;82.30;;;;;;4994807;28;20179;-85
2021/03/08 08:50:54;;;;;;;46.42;17.25;;;2.30;81.20;;;;;;4994872;28;20199;-85
2021/03/08 08:53:36;;;;;;;39.40;17.27;;;2.50;81.20;;;;;;4994459;28;20172;-85
2021/03/08 08:56:04;;;;;;;37.50;17.00;;;2.50;80.30;;;;;;4994704;28;20550;-85
2021/03/08 08:58:44;;;;;;;39.05;17.00;;;2.50;80.20;;;;;;5004774;28;20199;-84
2021/03/08 09:01:26;;;;;;;36.78;16.30;;;2.60;80.10;;;;;;5014257;28;20194;-84
2021/03/08 09:04:07;;;;;;;28.75;14.95;;;2.70;79.90;;;;;;5015029;28;20681;-85
2021/03/08 09:06:57;;;;;;;32.33;15.18;;;2.80;79.20;;;;;;5014066;28;20643;-85
2021/03/08 09:09:23;;;;;;;37.05;16.00;;;2.80;78.90;;;;;;5014322;28;20177;-85
2021/03/08 09:11:54;;;;;;;43.93;17.23;;;2.90;78.10;;;;;;5014099;28;20254;-85
2021/03/08 09:14:37;;;;;;;42.42;15.45;;;3.00;78.90;;;;;;5014307;28;20186;-85
2021/03/08 09:17:07;;;;;;;42.15;16.58;;;3.00;77.80;;;;;;5014112;28;20178;-85
2021/03/08 09:19:34;;;;;;;36.15;14.65;;;3.10;77.30;;;;;;5014730;28;20702;-84
2021/03/08 09:22:26;;;;;;;31.08;14.85;;;3.10;77.10;;;;;;4997815;28;20218;-85
2021/03/08 09:24:56;;;;;;;33.20;15.32;;;3.20;76.70;;;;;;5014148;28;20531;-85
2021/03/08 09:27:26;;;;;;;35.90;15.75;;;3.30;76.40;;;;;;5014349;28;20288;-85
2021/03/08 09:29:53;;;;;;;38.45;13.88;;;3.40;76.00;;;;;;5014000;28;20174;-85
2021/03/08 09:32:19;;;;;;;31.95;12.63;;;3.50;76.20;;;;;;5013859;28;20242;-85
2021/03/08 09:34:46;;;;;;;34.63;13.43;;;3.60;75.20;;;;;;5013703;28;20166;-85
2021/03/08 09:37:13;;;;;;;36.65;12.82;;;3.70;74.60;;;;;;5013924;28;20362;-85
2021/03/08 09:39:52;;;;;;;33.83;15.55;;;3.80;74.20;;;;;;5013217;28;20167;-85
2021/03/08 09:42:20;;;;;;;23.77;13.13;;;3.90;74.50;;;;;;5013516;28;20174;-85
2021/03/08 09:44:46;;;;;;;30.55;15.18;;;4.10;73.40;;;;;;5013000;28;20170;-85
2021/03/08 09:47:12;;;;;;;29.88;12.93;;;4.20;72.60;;;;;;5013782;28;20265;-85
2021/03/08 09:49:52;;;;;;;37.40;14.00;;;4.20;73.00;;;;;;5013098;28;20491;-84
2021/03/08 09:52:35;;;;;;;29.25;13.85;;;4.40;73.00;;;;;;5013452;28;20579;-85
2021/03/08 09:55:09;;;;;;;35.63;13.93;;;4.50;72.30;;;;;;5013381;28;20186;-85
2021/03/08 09:57:40;;;;;;;28.20;12.50;;;4.60;70.90;;;;;;5010389;28;20305;-85
2021/03/08 10:00:11;;;;;;;26.10;12.95;;;4.70;70.50;;;;;;4993896;28;20233;-85
2021/03/08 10:02:37;;;;;;;32.22;14.63;;;4.80;69.50;;;;;;4993615;28;20214;-85
2021/03/08 10:05:08;;;;;;;35.20;15.30;;;4.90;69.50;;;;;;4993858;28;20167;-85
2021/03/08 10:07:34;;;;;;;24.92;13.05;;;4.80;68.30;;;;;;4993901;28;20265;-85
2021/03/08 10:10:11;;;;;;;28.57;13.63;;;4.80;68.80;;;;;;4994493;28;20223;-85
2021/03/08 10:12:37;;;;;;;20.88;12.48;;;4.80;69.20;;;;;;4993757;28;20422;-85
2021/03/08 10:15:04;;;;;;;30.13;13.80;;;4.90;69.10;;;;;;4993690;28;20181;-85
2021/03/08 10:17:30;;;;;;;25.48;12.65;;;5.00;68.80;;;;;;4993428;28;20203;-85
2021/03/08 10:20:01;;;;;;;28.00;13.87;;;5.10;67.40;;;;;;4993736;28;20266;-84
2021/03/08 10:22:39;;;;;;;26.48;12.30;;;5.20;68.30;;;;;;4994557;28;20426;-84
2021/03/08 10:25:22;;;;;;;27.60;12.90;;;5.40;67.10;;;;;;4994215;28;20590;-83
2021/03/08 10:27:56;;;;;;;22.45;12.65;;;5.50;66.40;;;;;;4993773;28;20185;-84
2021/03/08 10:30:24;;;;;;;36.45;14.27;;;5.50;66.70;;;;;;4994188;28;20680;-84
2021/03/08 10:32:56;;;;;;;29.38;15.30;;;5.60;66.40;;;;;;4993711;28;20177;-85
2021/03/08 10:35:25;;;;;;;25.92;13.60;;;5.70;66.30;;;;;;4994146;28;20687;-84
2021/03/08 10:37:51;;;;;;;27.67;14.23;;;5.90;66.60;;;;;;4993237;28;20297;-84
2021/03/08 10:40:17;;;;;;;25.45;13.60;;;5.90;64.80;;;;;;4993738;28;20719;-85
2021/03/08 10:42:43;;;;;;;31.25;14.95;;;5.90;64.90;;;;;;4993495;28;20175;-85
2021/03/08 10:45:11;;;;;;;31.75;12.98;;;6.00;64.90;;;;;;4993142;28;20183;-85
2021/03/08 10:47:37;;;;;;;21.52;10.95;;;6.10;63.90;;;;;;4992967;28;20176;-85
2021/03/08 10:50:04;;;;;;;32.30;15.05;;;6.20;62.80;;;;;;4993319;28;20206;-85
2021/03/08 10:52:30;;;;;;;28.90;12.23;;;6.40;62.80;;;;;;4993448;28;20175;-85
2021/03/08 10:54:56;;;;;;;21.23;11.37;;;6.50;61.90;;;;;;4993654;28;20175;-85
2021/03/08 10:57:23;;;;;;;25.60;12.23;;;6.70;60.80;;;;;;4994318;28;20422;-85
2021/03/08 10:59:54;;;;;;;21.15;10.88;;;6.80;58.50;;;;;;5012779;28;20984;-85
2021/03/08 11:02:20;;;;;;;20.83;10.82;;;7.00;58.30;;;;;;5012794;28;20174;-84
2021/03/08 11:05:11;;;;;;;18.05;9.48;;;7.00;56.40;;;;;;5015819;28;20178;-85
2021/03/08 11:07:37;;;;;;;17.50;9.07;;;6.90;55.90;;;;;;5016867;28;20176;-85
2021/03/08 11:10:05;;;;;;;28.87;11.90;;;7.00;56.00;;;;;;5013448;28;20289;-85
2021/03/08 11:12:31;;;;;;;19.98;10.15;;;7.20;57.10;;;;;;5014234;28;20424;-85
2021/03/08 11:14:59;;;;;;;23.60;11.03;;;7.30;57.40;;;;;;5013440;28;20179;-85
2021/03/08 11:17:39;;;;;;;23.80;11.40;;;7.40;57.50;;;;;;5012464;28;20198;-85
2021/03/08 11:20:08;;;;;;;24.92;12.15;;;7.50;57.10;;;;;;5012534;28;20187;-84
2021/03/08 11:22:53;;;;;;;26.35;12.52;;;7.60;57.20;;;;;;5012416;28;20560;-85
2021/03/08 11:25:36;;;;;;;26.13;12.43;;;7.50;56.20;;;;;;5012608;28;20181;-85
2021/03/08 11:28:05;;;;;;;23.75;11.60;;;7.60;56.20;;;;;;5012955;28;20177;-85
2021/03/08 11:30:32;;;;;;;25.10;10.98;;;7.60;55.80;;;;;;5015754;28;20232;-85
2021/03/08 11:32:59;;;;;;;20.23;11.40;;;7.70;55.50;;;;;;5016061;28;20179;-85
2021/03/08 11:35:28;;;;;;;23.95;12.10;;;7.90;55.80;;;;;;5016246;28;20486;-85
2021/03/08 11:38:20;;;;;;;29.27;12.50;;;8.00;55.30;;;;;;5016401;28;20194;-85
2021/03/08 11:40:48;;;;;;;26.42;13.00;;;8.00;55.90;;;;;;5016567;28;20195;-85
2021/03/08 11:43:32;;;;;;;20.05;11.43;;;8.00;54.90;;;;;;5016460;28;20364;-84
2021/03/08 11:45:58;;;;;;;25.17;11.98;;;8.00;54.90;;;;;;5017079;28;20174;-84
2021/03/08 11:48:25;;;;;;;23.23;11.70;;;7.90;54.60;;;;;;5016528;28;20639;-85
2021/03/08 11:50:51;;;;;;;30.90;13.23;;;8.00;53.60;;;;;;5016024;28;20908;-85
2021/03/08 11:53:18;;;;;;;25.60;11.30;;;7.90;52.90;;;;;;5015781;28;20182;-84
2021/03/08 11:55:44;;;;;;;22.75;11.40;;;8.10;53.60;;;;;;5016324;28;20179;-85
2021/03/08 11:58:10;;;;;;;28.13;13.03;;;8.30;52.60;;;;;;5008177;28;20198;-85
2021/03/08 12:00:36;;;;;;;27.85;12.48;;;8.30;52.80;;;;;;4996117;28;20496;-85
2021/03/08 12:03:03;;;;;;;23.60;13.73;;;8.20;53.70;;;;;;4996254;28;20183;-84
2021/03/08 12:05:29;;;;;;;24.42;12.27;;;8.20;53.30;;;;;;4996775;28;20484;-84
2021/03/08 12:07:55;;;;;;;25.50;11.80;;;8.40;53.40;;;;;;4996215;28;20175;-85
2021/03/08 12:10:21;;;;;;;25.90;12.07;;;8.50;53.30;;;;;;4995442;28;20443;-85
2021/03/08 12:12:47;;;;;;;22.47;10.60;;;8.70;53.30;;;;;;4995843;28;20985;-85
2021/03/08 12:15:13;;;;;;;21.87;12.33;;;8.90;52.90;;;;;;4995684;28;20437;-85
2021/03/08 12:17:39;;;;;;;23.80;12.48;;;9.10;51.50;;;;;;4996232;28;20668;-85
2021/03/08 12:20:10;;;;;;;20.00;12.05;;;9.10;51.60;;;;;;4996197;28;20607;-85
2021/03/08 12:22:39;;;;;;;25.85;14.02;;;9.30;51.10;;;;;;4995657;28;20574;-85
2021/03/08 12:25:07;;;;;;;21.42;10.63;;;9.40;48.70;;;;;;4996188;28;20214;-86
2021/03/08 12:27:34;;;;;;;23.42;11.23;;;9.40;49.10;;;;;;4995593;28;20520;-86
2021/03/08 12:29:59;;;;;;;20.13;12.43;;;9.60;48.60;;;;;;4995920;28;20291;-86
2021/03/08 12:32:25;;;;;;;26.23;11.90;;;9.50;47.70;;;;;;4998430;28;20181;-85
2021/03/08 12:34:51;;;;;;;20.53;12.20;;;9.60;48.20;;;;;;4997497;28;20186;-85
2021/03/08 12:37:17;;;;;;;21.80;11.63;;;9.70;47.10;;;;;;4994504;28;20419;-85
2021/03/08 12:39:43;;;;;;;23.98;11.07;;;9.80;47.40;;;;;;4994871;28;20191;-85
2021/03/08 12:42:09;;;;;;;21.93;11.40;;;10.00;46.90;;;;;;4993551;28;20171;-85
2021/03/08 12:44:34;;;;;;;17.70;10.70;;;10.10;47.50;;;;;;4994863;28;20418;-85
2021/03/08 12:47:00;;;;;;;17.03;10.47;;;10.40;47.10;;;;;;4995205;28;20411;-86